Terminal Aerodrome Forecast
Issued by NWS

Home | Current Version | Previous Version | Text Only | Print | Product List | Glossary On
Versions: 1 2 3 4 5 6 7 8 9 10 11 12 13 14 15 16 17 18 19 20
000
FTUS45 KTFX 212300
TAFGTF
TAF
KGTF 212331Z 2200/2224 34008KT P6SM VCSH SCT030 BKN040
     FM220300 36006KT P6SM BKN050
     FM221000 03007KT P6SM -RA BKN015 OVC040=

USA.gov is the U.S. government's official web portal to all federal, state and local government web resources and services.